Time;durP1;ratioP1;P1;durP2;ratioP2;P2;SDS_P1;SDS_P2;PMS_P1;PMS_P2;Temp;Humidity;BMP_temperature;BMP_pressure;BME280_temperature;BME280_humidity;BME280_pressure;Samples;Min_cycle;Max_cycle;Signal;HPM_P1;HPM_P2
2022/05/29 00:01:50;;;;;;;6.05;1.90;;;20.70;82.10;;;;;;5073988;28;20036;-63
2022/05/29 00:04:16;;;;;;;7.18;2.65;;;20.90;79.30;;;;;;5055321;28;20053;-62
2022/05/29 00:06:44;;;;;;;6.85;1.80;;;20.80;79.10;;;;;;5055463;28;20044;-62
2022/05/29 00:09:11;;;;;;;7.80;1.88;;;20.80;82.50;;;;;;5065318;28;20134;-61
2022/05/29 00:11:37;;;;;;;5.63;1.75;;;20.90;79.60;;;;;;5046855;28;20044;-62
2022/05/29 00:14:03;;;;;;;6.63;2.22;;;20.80;82.20;;;;;;5055238;28;20053;-64
2022/05/29 00:16:29;;;;;;;4.13;1.50;;;20.90;82.30;;;;;;5071979;28;20101;-63
2022/05/29 00:18:55;;;;;;;7.40;1.90;;;;;;;;;;5072155;28;20060;-67
2022/05/29 00:21:21;;;;;;;8.48;2.30;;;20.80;82.20;;;;;;5071807;28;20045;-62
2022/05/29 00:23:50;;;;;;;7.55;2.50;;;20.80;82.20;;;;;;5055718;28;20090;-62
2022/05/29 00:26:19;;;;;;;6.63;1.98;;;21.00;80.30;;;;;;5055671;28;20063;-62
2022/05/29 00:28:44;;;;;;;6.97;1.92;;;20.60;79.20;;;;;;5055525;28;20402;-62
2022/05/29 00:31:11;;;;;;;5.25;1.80;;;20.80;82.20;;;;;;5082094;28;20040;-62
2022/05/29 00:33:36;;;;;;;6.53;1.92;;;20.80;79.60;;;;;;5091961;28;20052;-63
2022/05/29 00:36:02;;;;;;;8.05;2.47;;;20.90;79.40;;;;;;5092276;28;20055;-62
2022/05/29 00:38:37;;;;;;;5.88;2.28;;;20.80;82.40;;;;;;5093737;28;20497;-62
2022/05/29 00:41:17;;;;;;;6.68;1.80;;;20.70;82.30;;;;;;5088006;28;20048;-63
2022/05/29 00:43:44;;;;;;;5.50;1.80;;;20.90;82.70;;;;;;5093081;28;20525;-63
2022/05/29 00:46:12;;;;;;;5.70;1.88;;;20.90;79.70;;;;;;5093448;28;20044;-62
2022/05/29 00:48:39;;;;;;;6.70;2.10;;;20.60;82.20;;;;;;5093096;28;20094;-63
2022/05/29 00:51:06;;;;;;;4.45;1.55;;;20.80;82.30;;;;;;5070423;28;20044;-63
2022/05/29 00:53:32;;;;;;;7.32;2.28;;;20.70;82.20;;;;;;5062194;28;20056;-63
2022/05/29 00:56:01;;;;;;;7.22;2.20;;;20.80;79.50;;;;;;5078970;28;20497;-63
2022/05/29 00:58:26;;;;;;;6.72;2.08;;;20.60;82.30;;;;;;5056860;28;20056;-62
2022/05/29 01:00:52;;;;;;;4.75;1.60;;;20.50;82.20;;;;;;5058649;28;20048;-62
2022/05/29 01:03:18;;;;;;;7.53;2.17;;;20.90;82.30;;;;;;5045790;28;20044;-63
2022/05/29 01:05:44;;;;;;;5.80;1.80;;;20.70;82.20;;;;;;5061818;28;20044;-63
2022/05/29 01:08:29;;;;;;;8.88;2.17;;;20.90;82.30;;;;;;5061881;28;20105;-62
2022/05/29 01:11:06;;;;;;;8.60;1.70;;;20.90;82.40;;;;;;5064440;28;20067;-63
2022/05/29 01:13:38;;;;;;;7.68;2.35;;;20.70;82.80;;;;;;5066164;28;20416;-62
2022/05/29 01:16:04;;;;;;;5.63;1.98;;;20.80;82.40;;;;;;5104140;28;20118;-62
2022/05/29 01:18:53;;;;;;;5.47;1.92;;;20.80;82.70;;;;;;5078415;28;20044;-62
2022/05/29 01:21:41;;;;;;;6.15;2.17;;;20.70;82.30;;;;;;5082448;28;20543;-62
2022/05/29 01:24:28;;;;;;;6.03;1.83;;;20.70;82.30;;;;;;5060980;28;20118;-62
2022/05/29 01:27:12;;;;;;;7.07;1.98;;;20.50;78.40;;;;;;5061539;28;20058;-63
2022/05/29 01:29:41;;;;;;;5.05;1.45;;;20.60;78.00;;;;;;5096536;28;20044;-62
2022/05/29 01:32:13;;;;;;;6.30;1.85;;;20.70;82.20;;;;;;5096644;28;20571;-63
2022/05/29 01:34:48;;;;;;;7.22;2.03;;;20.80;78.20;;;;;;5078274;28;20047;-62
2022/05/29 01:37:20;;;;;;;7.13;2.13;;;20.70;82.10;;;;;;5046928;28;20152;-62
2022/05/29 01:40:05;;;;;;;7.60;1.83;;;20.70;79.80;;;;;;5096089;28;20489;-62
2022/05/29 01:42:35;;;;;;;7.07;1.90;;;20.60;82.20;;;;;;5096244;28;20046;-62
2022/05/29 01:45:04;;;;;;;5.90;2.45;;;20.80;82.20;;;;;;5066331;28;20102;-62
2022/05/29 01:47:49;;;;;;;6.70;2.10;;;20.50;82.10;;;;;;5098034;28;20051;-62
2022/05/29 01:50:44;;;;;;;5.25;1.95;;;20.60;82.10;;;;;;5086048;28;20036;-62
2022/05/29 01:53:13;;;;;;;5.93;2.33;;;20.70;82.10;;;;;;5047949;28;20054;-62
2022/05/29 01:56:00;;;;;;;5.68;1.73;;;20.60;81.90;;;;;;5081279;28;20044;-63
2022/05/29 01:58:29;;;;;;;6.82;2.00;;;20.70;82.40;;;;;;5077982;28;20510;-62
2022/05/29 02:00:56;;;;;;;4.88;1.70;;;20.60;82.50;;;;;;5062050;28;20468;-62
2022/05/29 02:03:30;;;;;;;8.65;1.98;;;20.80;79.60;;;;;;5044083;28;20087;-63
2022/05/29 02:05:58;;;;;;;6.88;2.20;;;20.40;78.70;;;;;;5050832;28;20052;-67
2022/05/29 02:08:44;;;;;;;6.82;2.17;;;20.90;82.40;;;;;;5062498;28;20058;-62
2022/05/29 02:11:18;;;;;;;5.65;1.88;;;21.00;82.40;;;;;;5100487;28;20086;-62
2022/05/29 02:13:48;;;;;;;5.60;2.33;;;20.70;79.80;;;;;;5064645;28;20056;-62
2022/05/29 02:16:47;;;;;;;5.50;1.58;;;20.80;82.30;;;;;;5079231;28;20059;-64
2022/05/29 02:19:15;;;;;;;5.63;1.85;;;20.80;82.30;;;;;;4999806;28;20085;-63
2022/05/29 02:21:58;;;;;;;7.55;2.10;;;20.60;79.50;;;;;;5032932;28;20073;-62
2022/05/29 02:24:26;;;;;;;4.45;1.80;;;20.70;82.50;;;;;;4985043;28;20061;-63
2022/05/29 02:26:56;;;;;;;6.97;1.80;;;20.60;82.30;;;;;;4967181;28;20052;-62
2022/05/29 02:29:21;;;;;;;5.32;1.67;;;20.70;82.50;;;;;;5000572;28;20446;-62
2022/05/29 02:32:08;;;;;;;7.45;1.75;;;21.00;79.60;;;;;;4999982;28;20115;-62
2022/05/29 02:34:59;;;;;;;5.47;1.80;;;20.80;78.80;;;;;;5016228;28;20060;-62
2022/05/29 02:37:42;;;;;;;7.13;2.05;;;20.80;82.40;;;;;;5010801;28;20488;-63
2022/05/29 02:40:11;;;;;;;5.20;1.73;;;20.60;82.70;;;;;;5010654;28;20087;-62
2022/05/29 02:43:00;;;;;;;4.00;1.92;;;20.50;79.70;;;;;;5016325;28;20061;-63
2022/05/29 02:45:57;;;;;;;8.50;2.53;;;20.90;82.50;;;;;;4999967;28;20049;-62
2022/05/29 02:48:49;;;;;;;4.05;1.52;;;20.60;82.30;;;;;;5014553;28;20050;-63
2022/05/29 02:51:24;;;;;;;5.28;1.90;;;20.70;82.50;;;;;;5016193;28;20388;-63
2022/05/29 02:53:50;;;;;;;5.38;1.80;;;20.90;80.10;;;;;;5032324;28;20058;-62
2022/05/29 02:56:16;;;;;;;7.20;2.13;;;;;;;;;;5082262;28;20052;-62
2022/05/29 02:58:43;;;;;;;7.18;2.00;;;20.40;82.40;;;;;;5092009;28;20070;-62
2022/05/29 03:01:31;;;;;;;4.82;1.50;;;20.60;82.40;;;;;;5094943;28;20422;-62
2022/05/29 03:04:03;;;;;;;6.95;1.95;;;20.60;79.80;;;;;;5076091;28;20105;-62
2022/05/29 03:07:12;;;;;;;3.47;1.60;;;20.80;78.50;;;;;;5060063;28;20056;-63
2022/05/29 03:09:48;;;;;;;5.82;2.20;;;20.60;82.50;;;;;;4980649;28;20113;-64
2022/05/29 03:12:23;;;;;;;5.70;2.08;;;20.90;80.30;;;;;;4950019;28;20077;-63
2022/05/29 03:15:15;;;;;;;7.88;1.67;;;20.80;82.50;;;;;;4941001;28;20059;-62
2022/05/29 03:17:46;;;;;;;5.63;1.50;;;20.80;78.70;;;;;;4953653;28;20051;-63
2022/05/29 03:20:36;;;;;;;6.55;2.05;;;20.60;82.40;;;;;;4923589;28;20568;-63
2022/05/29 03:23:10;;;;;;;4.90;1.73;;;20.50;82.20;;;;;;4968887;28;20492;-62
2022/05/29 03:25:39;;;;;;;5.18;2.00;;;20.60;82.70;;;;;;4956837;28;20071;-62
2022/05/29 03:28:45;;;;;;;4.68;1.58;;;20.40;82.30;;;;;;4965725;28;20138;-62
2022/05/29 03:31:12;;;;;;;5.28;1.67;;;20.60;79.20;;;;;;4938574;28;20437;-65
2022/05/29 03:33:39;;;;;;;5.80;1.80;;;20.60;79.80;;;;;;4916411;29;20107;-62
2022/05/29 03:36:11;;;;;;;6.00;2.05;;;20.50;82.40;;;;;;4935542;28;20047;-63
2022/05/29 03:38:37;;;;;;;5.53;1.77;;;20.60;78.40;;;;;;4923407;28;20055;-63
2022/05/29 03:41:15;;;;;;;5.53;1.50;;;20.60;81.60;;;;;;4939459;29;20055;-63
2022/05/29 03:43:42;;;;;;;3.97;1.55;;;20.50;80.10;;;;;;4941675;29;20059;-62
2022/05/29 03:46:07;;;;;;;6.45;1.73;;;20.60;82.50;;;;;;4977678;28;20676;-63
2022/05/29 03:48:34;;;;;;;5.00;1.52;;;20.70;82.80;;;;;;5037319;28;20124;-62
2022/05/29 03:51:04;;;;;;;5.45;1.55;;;20.80;79.90;;;;;;5042477;28;20446;-62
2022/05/29 03:53:30;;;;;;;6.53;1.77;;;20.80;82.60;;;;;;5048631;28;20126;-63
2022/05/29 03:55:56;;;;;;;5.70;1.58;;;20.70;79.70;;;;;;5034301;28;20549;-63
2022/05/29 03:58:22;;;;;;;6.75;1.85;;;;;;;;;;5048861;28;20045;-63
2022/05/29 04:00:48;;;;;;;5.53;2.03;;;20.50;82.90;;;;;;5039629;28;20041;-62
2022/05/29 04:03:14;;;;;;;4.32;1.70;;;;;;;;;;5101163;28;20036;-64
2022/05/29 04:05:39;;;;;;;5.53;1.63;;;20.70;82.70;;;;;;5082446;28;20087;-62
2022/05/29 04:13:38;;;;;;;5.47;1.90;;;20.40;79.30;;;;;;5078119;28;20044;-67
2022/05/29 04:16:04;;;;;;;5.15;1.85;;;20.80;80.10;;;;;;5088901;28;20124;-63
2022/05/29 04:18:30;;;;;;;8.73;2.15;;;20.30;82.50;;;;;;5101650;28;20043;-63
2022/05/29 04:20:55;;;;;;;6.20;1.60;;;20.50;82.60;;;;;;5060275;28;20115;-62
2022/05/29 04:23:21;;;;;;;6.55;1.77;;;20.80;82.70;;;;;;5098237;28;20396;-64
2022/05/29 04:25:47;;;;;;;4.90;1.80;;;20.50;79.70;;;;;;5089108;28;20088;-62
2022/05/29 04:28:13;;;;;;;6.30;1.80;;;20.30;82.50;;;;;;5071003;28;20074;-62
2022/05/29 04:30:39;;;;;;;3.67;1.35;;;20.40;82.60;;;;;;5070510;28;20048;-64
2022/05/29 04:33:04;;;;;;;6.03;2.13;;;20.40;82.50;;;;;;5054153;28;20036;-63
2022/05/29 04:35:35;;;;;;;7.32;2.17;;;20.30;79.20;;;;;;5071570;28;20057;-67
2022/05/29 04:38:00;;;;;;;5.80;1.92;;;20.70;82.60;;;;;;5087107;28;20050;-63
2022/05/29 04:40:26;;;;;;;6.07;1.50;;;20.60;83.20;;;;;;5065015;28;20482;-62
2022/05/29 04:42:52;;;;;;;5.22;1.60;;;20.60;83.00;;;;;;5100110;28;20116;-62
2022/05/29 04:45:18;;;;;;;5.63;1.60;;;20.60;82.50;;;;;;5108404;28;20385;-63
2022/05/29 04:47:43;;;;;;;6.45;1.75;;;20.60;82.50;;;;;;5070860;28;20490;-62
2022/05/29 04:50:09;;;;;;;4.95;1.75;;;20.60;82.50;;;;;;5097721;28;20030;-62
2022/05/29 04:52:35;;;;;;;5.30;1.60;;;20.60;82.70;;;;;;5083195;28;20059;-62
2022/05/29 04:55:01;;;;;;;5.15;2.00;;;20.60;82.90;;;;;;5089025;28;20043;-62
2022/05/29 04:57:27;;;;;;;5.38;1.73;;;20.50;81.60;;;;;;5055123;28;20043;-63
2022/05/29 04:59:53;;;;;;;7.10;1.83;;;20.60;82.50;;;;;;5111190;28;20039;-63
2022/05/29 05:02:19;;;;;;;5.90;1.60;;;20.60;82.70;;;;;;5108896;28;20035;-62
2022/05/29 05:04:45;;;;;;;6.03;1.38;;;;;;;;;;5107632;28;20051;-69
2022/05/29 05:07:11;;;;;;;7.85;1.83;;;20.30;82.40;;;;;;5107767;28;20047;-63
2022/05/29 05:09:37;;;;;;;5.75;1.77;;;20.70;82.50;;;;;;5106271;28;20760;-62
2022/05/29 05:12:03;;;;;;;5.88;1.80;;;20.50;79.30;;;;;;5064580;28;20048;-62
2022/05/29 05:14:29;;;;;;;4.28;1.63;;;20.50;79.70;;;;;;5107931;28;20370;-62
2022/05/29 05:16:55;;;;;;;6.38;1.70;;;20.40;82.30;;;;;;5057224;28;20098;-63
2022/05/29 05:19:21;;;;;;;6.22;2.15;;;20.60;82.60;;;;;;5074940;28;20048;-62
2022/05/29 05:21:47;;;;;;;5.63;1.50;;;20.60;81.70;;;;;;5090030;28;20048;-62
2022/05/29 05:24:12;;;;;;;6.53;1.83;;;20.60;82.50;;;;;;5056532;28;20549;-63
2022/05/29 05:26:38;;;;;;;6.75;2.03;;;20.70;79.60;;;;;;5083682;28;20101;-63
2022/05/29 05:29:04;;;;;;;4.63;1.55;;;20.70;82.40;;;;;;5086713;28;20106;-63
2022/05/29 05:31:30;;;;;;;6.82;1.80;;;20.70;82.50;;;;;;5078073;28;20132;-63
2022/05/29 05:33:56;;;;;;;7.40;2.20;;;20.50;82.30;;;;;;5086686;28;20050;-63
2022/05/29 05:36:24;;;;;;;6.38;1.60;;;20.70;82.70;;;;;;5102613;28;20040;-62
2022/05/29 05:38:53;;;;;;;5.13;1.58;;;20.80;79.10;;;;;;5083819;28;20043;-63
2022/05/29 05:41:19;;;;;;;6.20;1.80;;;20.60;82.50;;;;;;5099105;28;20073;-62
2022/05/29 05:43:45;;;;;;;5.85;1.63;;;20.50;79.70;;;;;;5106318;28;20054;-62
2022/05/29 05:46:12;;;;;;;5.75;1.58;;;20.70;82.30;;;;;;5071243;28;20071;-66
2022/05/29 05:48:39;;;;;;;4.32;1.52;;;20.60;80.50;;;;;;5104806;28;20035;-68
2022/05/29 05:51:05;;;;;;;5.78;1.67;;;20.60;82.20;;;;;;5071116;28;20048;-66
2022/05/29 05:53:31;;;;;;;6.90;1.80;;;20.70;82.80;;;;;;5061962;28;20105;-66
2022/05/29 05:55:57;;;;;;;5.85;1.70;;;20.70;79.40;;;;;;5095620;28;20067;-62
2022/05/29 05:58:22;;;;;;;5.13;1.85;;;20.60;82.20;;;;;;5085609;28;20070;-63
2022/05/29 06:00:49;;;;;;;6.97;2.15;;;;;;;;;;5046901;28;20469;-67
2022/05/29 06:03:15;;;;;;;5.20;1.80;;;20.80;82.50;;;;;;5095187;28;20059;-62
2022/05/29 06:05:41;;;;;;;5.50;1.60;;;20.50;82.30;;;;;;5108643;28;20092;-62
2022/05/29 06:08:07;;;;;;;7.57;1.92;;;22.00;83.00;;;;;;5095948;28;20045;-64
2022/05/29 06:10:33;;;;;;;6.57;2.00;;;20.60;81.40;;;;;;5077688;28;20044;-63
2022/05/29 06:13:05;;;;;;;5.90;1.75;;;20.70;79.40;;;;;;5060458;28;20046;-62
2022/05/29 06:15:31;;;;;;;;;;;20.60;80.00;;;;;;5080934;28;20044;-62
2022/05/29 06:17:57;;;;;;;6.43;1.75;;;20.80;82.80;;;;;;5083595;28;19990;-64
2022/05/29 06:20:24;;;;;;;6.38;2.00;;;20.50;82.40;;;;;;5047723;28;20035;-62
2022/05/29 06:22:50;;;;;;;4.85;1.70;;;20.50;82.30;;;;;;5094860;28;20075;-62
2022/05/29 06:25:16;;;;;;;5.70;1.50;;;20.50;82.20;;;;;;5101858;28;20040;-64
2022/05/29 06:27:43;;;;;;;4.03;1.63;;;20.80;79.50;;;;;;5080890;28;20451;-63
2022/05/29 06:30:11;;;;;;;6.82;1.77;;;20.70;82.30;;;;;;5068592;28;20079;-62
2022/05/29 06:32:36;;;;;;;5.47;1.67;;;20.60;79.50;;;;;;5107499;28;20040;-62
2022/05/29 06:35:03;;;;;;;6.35;1.65;;;20.50;82.30;;;;;;5068566;28;20481;-62
2022/05/29 06:37:29;;;;;;;5.78;2.03;;;20.60;82.40;;;;;;5060893;28;20044;-63
2022/05/29 06:39:56;;;;;;;5.13;1.65;;;20.60;79.30;;;;;;5087068;28;20054;-62
2022/05/29 06:42:21;;;;;;;5.10;1.70;;;20.60;82.30;;;;;;5084038;28;20104;-62
2022/05/29 06:44:47;;;;;;;5.95;1.60;;;20.80;79.50;;;;;;5084896;28;20036;-62
2022/05/29 06:47:15;;;;;;;4.93;1.65;;;20.70;82.40;;;;;;5092559;28;20052;-63
2022/05/29 06:49:41;;;;;;;6.53;1.90;;;20.60;79.40;;;;;;5088152;28;20552;-62
2022/05/29 06:52:07;;;;;;;5.35;1.70;;;20.60;82.30;;;;;;5051406;28;20119;-62
2022/05/29 06:54:34;;;;;;;4.63;1.50;;;20.40;82.30;;;;;;5050590;28;20047;-64
2022/05/29 06:56:59;;;;;;;6.50;1.60;;;20.40;82.20;;;;;;5076889;28;20107;-62
2022/05/29 06:59:25;;;;;;;5.85;2.10;;;20.50;82.30;;;;;;5077712;28;20083;-63
2022/05/29 07:07:21;;;;;;;6.13;1.48;;;20.60;81.60;;;;;;5064481;28;20059;-66
2022/05/29 07:09:47;;;;;;;5.05;1.30;;;20.50;82.80;;;;;;5070967;28;20047;-63
2022/05/29 07:12:18;;;;;;;5.43;1.50;;;20.60;82.50;;;;;;5084131;28;20436;-63
2022/05/29 07:14:52;;;;;;;6.85;1.73;;;20.70;82.30;;;;;;5053431;28;20059;-63
2022/05/29 07:17:22;;;;;;;5.90;1.55;;;20.60;78.10;;;;;;5080785;28;20052;-64
2022/05/29 07:19:48;;;;;;;5.00;1.42;;;20.60;82.40;;;;;;5101610;28;20047;-64
2022/05/29 07:22:14;;;;;;;5.18;1.48;;;20.70;82.70;;;;;;5081687;28;20048;-63
2022/05/29 07:24:40;;;;;;;4.35;1.73;;;20.80;82.40;;;;;;5079575;28;20043;-63
2022/05/29 07:27:06;;;;;;;4.72;1.40;;;20.60;82.40;;;;;;5106571;28;20403;-62
2022/05/29 07:29:32;;;;;;;5.95;1.40;;;20.70;82.40;;;;;;5067995;28;20040;-64
2022/05/29 07:32:00;;;;;;;3.67;1.48;;;20.70;82.50;;;;;;5086947;28;20528;-63
2022/05/29 07:34:26;;;;;;;8.40;1.70;;;20.90;83.00;;;;;;5107881;28;20048;-63
2022/05/29 07:36:52;;;;;;;4.55;1.75;;;20.80;82.60;;;;;;5112304;28;20036;-62
2022/05/29 07:39:18;;;;;;;6.10;1.40;;;20.80;79.60;;;;;;5091939;28;20500;-64
2022/05/29 07:44:28;;;;;;;4.85;1.80;;;20.70;78.70;;;;;;5098013;28;20397;-65
2022/05/29 07:46:54;;;;;;;4.32;1.33;;;20.70;82.80;;;;;;5071415;28;20052;-64
2022/05/29 07:49:21;;;;;;;5.47;1.70;;;;;;;;;;5108244;28;20040;-64
2022/05/29 07:51:47;;;;;;;3.05;1.33;;;21.10;83.10;;;;;;5102734;28;20043;-63
2022/05/29 07:54:13;;;;;;;4.45;1.27;;;20.80;82.90;;;;;;5108067;28;20075;-63
2022/05/29 07:56:40;;;;;;;5.50;1.80;;;;;;;;;;5100137;28;20166;-66
2022/05/29 07:59:06;;;;;;;4.85;1.50;;;20.70;82.80;;;;;;5091232;28;20048;-62
2022/05/29 08:01:31;;;;;;;5.07;1.27;;;21.10;83.20;;;;;;5075349;28;20549;-62
2022/05/29 08:03:57;;;;;;;3.65;1.20;;;21.00;82.80;;;;;;5047961;28;20083;-62
2022/05/29 08:06:23;;;;;;;4.75;1.40;;;20.80;82.70;;;;;;5081967;28;20045;-63
2022/05/29 08:08:49;;;;;;;4.15;1.35;;;20.90;82.60;;;;;;5056822;28;20040;-65
2022/05/29 08:11:17;;;;;;;4.72;1.48;;;21.10;80.00;;;;;;5076400;28;20181;-64
2022/05/29 08:13:43;;;;;;;4.07;1.13;;;21.10;81.30;;;;;;5068044;28;20106;-66
2022/05/29 08:16:09;;;;;;;4.97;1.40;;;21.20;80.00;;;;;;5071576;28;20047;-64
2022/05/29 08:18:35;;;;;;;4.93;1.35;;;21.20;82.60;;;;;;5038151;28;20032;-65
2022/05/29 08:21:00;;;;;;;4.22;1.35;;;21.40;82.70;;;;;;5078289;28;20075;-65
2022/05/29 08:23:26;;;;;;;4.38;1.48;;;21.40;79.60;;;;;;5086360;28;20044;-64
2022/05/29 08:31:12;;;;;;;5.28;1.77;;;21.10;82.70;;;;;;5081252;28;20451;-65
2022/05/29 08:33:38;;;;;;;3.72;1.20;;;21.00;82.70;;;;;;5066370;28;20078;-65
2022/05/29 08:36:09;;;;;;;5.38;1.40;;;21.30;82.80;;;;;;5089421;28;20047;-64
2022/05/29 08:38:36;;;;;;;3.33;1.20;;;21.00;82.50;;;;;;5034036;28;20084;-64
2022/05/29 08:41:05;;;;;;;7.70;1.90;;;21.20;82.50;;;;;;5054103;28;20052;-64
2022/05/29 08:43:36;;;;;;;4.45;1.48;;;21.20;80.00;;;;;;5069158;28;20048;-64
2022/05/29 08:46:34;;;;;;;4.43;1.15;;;21.20;82.60;;;;;;5079171;28;20032;-64
2022/05/29 08:49:00;;;;;;;5.13;1.63;;;;;;;;;;5088082;28;20092;-67
2022/05/29 08:51:27;;;;;;;5.18;1.70;;;;;;;;;;5071988;28;20036;-65
2022/05/29 08:54:40;;;;;;;5.38;1.75;;;21.30;77.90;;;;;;5078859;28;20053;-67
2022/05/29 08:57:37;;;;;;;4.32;1.50;;;21.00;82.50;;;;;;5051560;28;20063;-66
2022/05/29 09:00:22;;;;;;;6.43;1.90;;;21.00;82.60;;;;;;5049747;28;20433;-63
2022/05/29 09:03:06;;;;;;;4.55;1.65;;;21.10;82.70;;;;;;5045342;28;20458;-64
2022/05/29 09:05:45;;;;;;;4.07;1.30;;;21.30;82.90;;;;;;5057215;28;20084;-64
2022/05/29 09:08:16;;;;;;;4.90;1.73;;;21.10;82.80;;;;;;5059604;28;20491;-64
2022/05/29 09:10:43;;;;;;;5.68;1.65;;;21.20;82.70;;;;;;5038775;28;20036;-63
2022/05/29 09:13:17;;;;;;;5.15;1.88;;;21.20;82.70;;;;;;5056213;28;20040;-62
2022/05/29 09:15:48;;;;;;;4.55;1.85;;;21.50;83.10;;;;;;5021497;28;20125;-62
2022/05/29 09:18:38;;;;;;;5.40;1.73;;;21.30;82.70;;;;;;5029539;28;20084;-63
2022/05/29 09:21:13;;;;;;;4.20;1.52;;;21.60;78.40;;;;;;5059805;28;20057;-66
2022/05/29 09:23:52;;;;;;;4.20;1.30;;;21.20;82.40;;;;;;5048499;28;20037;-63
2022/05/29 09:26:18;;;;;;;5.88;1.95;;;21.20;82.70;;;;;;5038227;28;20061;-63
2022/05/29 09:28:44;;;;;;;7.93;1.88;;;21.40;82.90;;;;;;5017597;28;20105;-63
2022/05/29 09:31:20;;;;;;;3.33;1.38;;;21.40;82.70;;;;;;5031786;28;20512;-62
2022/05/29 09:33:47;;;;;;;4.75;1.63;;;21.30;82.60;;;;;;5073612;28;20053;-63
2022/05/29 09:36:52;;;;;;;4.78;1.58;;;21.40;82.60;;;;;;5070619;28;20048;-63
2022/05/29 09:39:41;;;;;;;7.53;1.90;;;21.50;82.70;;;;;;5067213;28;20055;-62
2022/05/29 09:42:19;;;;;;;5.47;1.60;;;21.50;82.90;;;;;;5067446;28;20389;-62
2022/05/29 09:45:15;;;;;;;6.45;1.83;;;21.50;77.90;;;;;;5053029;28;20056;-65
2022/05/29 09:50:52;;;;;;;6.05;1.73;;;21.50;77.80;;;;;;5089977;28;20052;-63
2022/05/29 09:53:30;;;;;;;5.43;1.80;;;21.50;82.30;;;;;;5058971;28;20044;-63
2022/05/29 09:56:04;;;;;;;5.47;1.70;;;21.50;77.50;;;;;;5083075;28;20542;-62
2022/05/29 09:58:51;;;;;;;4.80;1.60;;;21.60;82.10;;;;;;5081998;28;20111;-63
2022/05/29 10:01:34;;;;;;;4.72;1.40;;;21.60;82.20;;;;;;5086819;28;20371;-63
2022/05/29 10:04:11;;;;;;;4.90;1.63;;;21.80;82.40;;;;;;5059423;28;20052;-62
2022/05/29 10:06:44;;;;;;;5.75;2.17;;;21.80;79.00;;;;;;5053333;28;20402;-63
2022/05/29 10:09:19;;;;;;;5.53;1.80;;;21.60;82.10;;;;;;5049498;28;20043;-62
2022/05/29 10:11:58;;;;;;;7.00;2.47;;;21.70;82.30;;;;;;5076289;28;20044;-62
2022/05/29 10:14:35;;;;;;;5.30;1.85;;;21.40;81.90;;;;;;5078126;28;20111;-62
2022/05/29 10:17:01;;;;;;;4.65;1.80;;;21.40;82.00;;;;;;5084330;28;20040;-62
2022/05/29 10:19:44;;;;;;;6.30;1.60;;;21.80;77.50;;;;;;5075635;28;20051;-66
2022/05/29 10:22:31;;;;;;;5.13;1.60;;;21.80;78.50;;;;;;5089668;28;20397;-63
2022/05/29 10:24:57;;;;;;;4.65;1.55;;;21.60;82.20;;;;;;5068276;28;20080;-62
2022/05/29 10:27:31;;;;;;;6.85;1.90;;;21.70;79.60;;;;;;5052387;28;20043;-63
2022/05/29 10:30:40;;;;;;;5.95;1.85;;;21.40;81.90;;;;;;5080431;28;20048;-67
2022/05/29 10:33:11;;;;;;;4.82;1.85;;;21.50;82.30;;;;;;5075745;28;20048;-63
2022/05/29 10:35:40;;;;;;;5.55;1.55;;;21.50;81.90;;;;;;5072290;28;20040;-62
2022/05/29 10:38:28;;;;;;;7.65;1.92;;;21.60;81.80;;;;;;5048253;28;20040;-63
2022/05/29 10:40:56;;;;;;;4.20;1.27;;;21.70;81.90;;;;;;5071852;28;20167;-63
2022/05/29 10:43:45;;;;;;;6.05;1.55;;;21.50;79.30;;;;;;5060430;28;20044;-62
2022/05/29 10:46:12;;;;;;;5.70;1.83;;;;;;;;;;5084869;28;20040;-63
2022/05/29 10:48:56;;;;;;;4.80;1.63;;;21.40;77.10;;;;;;5075226;28;20394;-65
2022/05/29 10:51:34;;;;;;;3.72;1.30;;;21.60;82.00;;;;;;5065027;28;20044;-62
2022/05/29 10:54:38;;;;;;;4.63;1.77;;;21.40;81.80;;;;;;5079271;28;20040;-62
2022/05/29 10:57:41;;;;;;;5.18;1.85;;;21.60;82.00;;;;;;5071645;28;20052;-62
2022/05/29 11:00:37;;;;;;;5.20;1.52;;;21.40;81.80;;;;;;5047296;28;20091;-62
2022/05/29 11:03:26;;;;;;;5.10;1.67;;;21.90;77.40;;;;;;5036054;28;20059;-68
2022/05/29 11:06:13;;;;;;;3.40;1.15;;;21.60;81.80;;;;;;5044221;28;20090;-68
2022/05/29 11:08:39;;;;;;;3.58;1.45;;;21.60;78.90;;;;;;5044038;28;20152;-64
2022/05/29 11:11:42;;;;;;;5.10;1.73;;;21.60;81.70;;;;;;5053880;28;20040;-64
2022/05/29 11:14:42;;;;;;;4.03;1.60;;;21.80;77.90;;;;;;5037676;28;20083;-64
2022/05/29 11:17:19;;;;;;;4.45;1.80;;;21.80;79.30;;;;;;5035389;28;20041;-63
2022/05/29 11:20:12;;;;;;;4.50;1.90;;;22.10;81.50;;;;;;5050002;28;20056;-64
2022/05/29 11:22:46;;;;;;;5.43;1.60;;;22.00;81.50;;;;;;5040978;28;20056;-63
2022/05/29 11:25:37;;;;;;;3.88;1.58;;;21.90;81.40;;;;;;5051903;28;20056;-64
2022/05/29 11:28:28;;;;;;;4.13;1.45;;;22.10;81.40;;;;;;5021592;28;20106;-63
2022/05/29 11:31:02;;;;;;;4.93;1.85;;;22.00;81.30;;;;;;5039096;28;20098;-64
2022/05/29 11:33:44;;;;;;;6.53;1.85;;;22.00;77.40;;;;;;5058800;28;20106;-64
2022/05/29 11:36:41;;;;;;;4.63;1.42;;;21.80;77.40;;;;;;5090923;28;20116;-65
2022/05/29 11:39:38;;;;;;;5.95;1.58;;;21.90;81.20;;;;;;5089068;28;20048;-65
2022/05/29 11:42:19;;;;;;;6.88;1.52;;;22.00;77.50;;;;;;5065247;28;20051;-63
2022/05/29 11:51:06;;;;;;;4.22;1.40;;;21.90;81.10;;;;;;5085498;28;20126;-63
2022/05/29 11:51:18;;;;;;;4.10;1.40;;;21.80;81.10;;;;;;5040605;28;20040;-65
2022/05/29 11:53:58;;;;;;;3.85;1.38;;;21.90;81.30;;;;;;5020974;28;20049;-63
2022/05/29 11:56:33;;;;;;;4.00;1.70;;;21.90;81.30;;;;;;5023039;28;20215;-63
2022/05/29 11:59:21;;;;;;;3.95;1.38;;;21.60;81.10;;;;;;5051303;28;20119;-63
2022/05/29 12:01:50;;;;;;;5.85;1.73;;;21.90;81.20;;;;;;5021532;28;20139;-64
2022/05/29 12:04:32;;;;;;;5.32;1.73;;;21.90;81.20;;;;;;5001960;28;20060;-63
2022/05/29 12:07:23;;;;;;;6.15;1.42;;;21.80;81.30;;;;;;4993710;28;20411;-63
2022/05/29 12:09:59;;;;;;;5.65;1.85;;;21.80;81.00;;;;;;5029551;28;20061;-63
2022/05/29 12:12:39;;;;;;;6.05;1.50;;;22.10;81.00;;;;;;5043891;28;20052;-64
2022/05/29 12:15:11;;;;;;;6.55;1.73;;;21.90;76.90;;;;;;5054484;28;20159;-64
2022/05/29 12:17:40;;;;;;;3.67;1.23;;;21.80;80.80;;;;;;5038323;28;20398;-64
2022/05/29 12:20:36;;;;;;;5.82;1.60;;;22.00;81.30;;;;;;5042772;28;20044;-63
2022/05/29 12:23:08;;;;;;;3.83;1.13;;;22.00;81.00;;;;;;5085980;28;20110;-63
2022/05/29 12:25:40;;;;;;;5.78;1.55;;;21.90;80.80;;;;;;5059632;28;20079;-63
2022/05/29 12:28:32;;;;;;;4.43;1.50;;;22.20;77.00;;;;;;5072190;28;20117;-63
2022/05/29 12:30:57;;;;;;;5.97;1.55;;;22.00;80.90;;;;;;5073178;28;20055;-64
2022/05/29 12:33:23;;;;;;;4.55;1.77;;;22.00;78.30;;;;;;5057064;28;20486;-63
2022/05/29 12:35:51;;;;;;;5.38;1.67;;;22.10;80.70;;;;;;5061086;28;20486;-63
2022/05/29 12:39:02;;;;;;;4.20;1.50;;;21.90;78.00;;;;;;5055126;28;20048;-63
2022/05/29 12:41:39;;;;;;;3.97;1.30;;;22.00;76.90;;;;;;5056915;28;20422;-63
2022/05/29 12:44:29;;;;;;;5.97;1.40;;;21.90;80.70;;;;;;5053582;28;20048;-63
2022/05/29 12:47:07;;;;;;;4.85;1.55;;;22.10;80.50;;;;;;5040043;28;20529;-64
2022/05/29 12:49:51;;;;;;;4.13;1.27;;;22.00;77.80;;;;;;5054563;28;20394;-63
2022/05/29 12:52:20;;;;;;;4.20;1.40;;;22.00;76.40;;;;;;5050744;28;20651;-63
2022/05/29 12:54:54;;;;;;;7.43;1.90;;;22.00;80.50;;;;;;5040635;28;20056;-63
2022/05/29 12:57:50;;;;;;;5.60;1.50;;;21.80;76.50;;;;;;5057994;28;20052;-63
2022/05/29 13:00:38;;;;;;;4.18;1.30;;;22.00;80.80;;;;;;5038136;28;20135;-63
2022/05/29 13:03:41;;;;;;;4.75;1.48;;;22.10;80.60;;;;;;5014768;28;20056;-63
2022/05/29 13:06:26;;;;;;;3.92;1.42;;;22.20;80.60;;;;;;5058171;28;20124;-63
2022/05/29 13:09:15;;;;;;;4.15;1.20;;;21.80;80.20;;;;;;5057589;28;20099;-63
2022/05/29 13:11:48;;;;;;;5.63;1.50;;;22.10;76.60;;;;;;5057722;28;20600;-62
2022/05/29 13:14:14;;;;;;;5.90;1.60;;;21.90;80.40;;;;;;5039943;28;20036;-64
2022/05/29 13:16:41;;;;;;;4.82;1.30;;;21.70;78.40;;;;;;5040872;28;20127;-63
2022/05/29 13:22:01;;;;;;;4.78;1.35;;;21.80;80.40;;;;;;5059551;28;20502;-64
2022/05/29 13:24:41;;;;;;;4.55;1.23;;;22.00;80.60;;;;;;5072502;28;20519;-65
2022/05/29 13:27:12;;;;;;;5.25;1.40;;;21.80;78.20;;;;;;5067849;28;20052;-64
2022/05/29 13:29:53;;;;;;;3.60;1.60;;;21.90;80.60;;;;;;5103519;28;20045;-64
2022/05/29 13:32:21;;;;;;;5.20;1.35;;;21.80;80.60;;;;;;5078343;28;20050;-67
2022/05/29 13:35:05;;;;;;;4.38;1.40;;;21.90;80.60;;;;;;5064674;28;20463;-65
2022/05/29 13:37:43;;;;;;;5.40;1.70;;;21.70;80.50;;;;;;5074126;28;20084;-64
2022/05/29 13:40:20;;;;;;;5.22;1.63;;;21.80;80.30;;;;;;5074797;28;20071;-66
2022/05/29 13:42:54;;;;;;;4.25;1.30;;;21.80;75.60;;;;;;5091282;28;20053;-65
2022/05/29 13:45:19;;;;;;;5.32;1.60;;;21.90;80.50;;;;;;5060597;28;20534;-65
2022/05/29 13:47:46;;;;;;;6.57;2.22;;;22.00;80.50;;;;;;5078718;28;20048;-64
2022/05/29 13:50:12;;;;;;;7.47;1.73;;;21.80;80.50;;;;;;5063376;28;20036;-65
2022/05/29 13:52:41;;;;;;;5.15;1.38;;;21.70;77.50;;;;;;5074346;28;20048;-65